sensor_id;sensor_type;location;lat;lon;timestamp;P1;durP1;ratioP1;P2;durP2;ratioP2
8791;SDS011;4432;50.890;4.744;2022-09-03T00:01:02;1.40;;;1.30;;
8791;SDS011;4432;50.890;4.744;2022-09-03T00:03:38;1.70;;;1.60;;
8791;SDS011;4432;50.890;4.744;2022-09-03T00:11:17;2.13;;;1.60;;
8791;SDS011;4432;50.890;4.744;2022-09-03T00:13:50;1.60;;;1.50;;
8791;SDS011;4432;50.890;4.744;2022-09-03T00:16:20;1.80;;;1.70;;
8791;SDS011;4432;50.890;4.744;2022-09-03T00:18:49;2.33;;;1.80;;
8791;SDS011;4432;50.890;4.744;2022-09-03T00:21:37;1.80;;;1.50;;
8791;SDS011;4432;50.890;4.744;2022-09-03T00:24:10;6.27;;;1.50;;
8791;SDS011;4432;50.890;4.744;2022-09-03T00:26:39;1.80;;;1.53;;
8791;SDS011;4432;50.890;4.744;2022-09-03T00:29:13;1.50;;;1.40;;
8791;SDS011;4432;50.890;4.744;2022-09-03T00:31:46;1.50;;;1.40;;
8791;SDS011;4432;50.890;4.744;2022-09-03T00:36:54;2.47;;;1.60;;
8791;SDS011;4432;50.890;4.744;2022-09-03T00:39:21;1.40;;;1.30;;
8791;SDS011;4432;50.890;4.744;2022-09-03T00:45:02;1.47;;;1.30;;
8791;SDS011;4432;50.890;4.744;2022-09-03T00:48:13;1.40;;;1.30;;
8791;SDS011;4432;50.890;4.744;2022-09-03T00:50:45;3.57;;;1.50;;
8791;SDS011;4432;50.890;4.744;2022-09-03T00:56:49;1.57;;;1.37;;
8791;SDS011;4432;50.890;4.744;2022-09-03T01:01:56;1.53;;;1.43;;
8791;SDS011;4432;50.890;4.744;2022-09-03T01:17:50;4.57;;;1.80;;
8791;SDS011;4432;50.890;4.744;2022-09-03T01:20:37;1.60;;;1.37;;
8791;SDS011;4432;50.890;4.744;2022-09-03T01:23:20;1.30;;;1.30;;
8791;SDS011;4432;50.890;4.744;2022-09-03T01:26:02;1.53;;;1.43;;
8791;SDS011;4432;50.890;4.744;2022-09-03T01:31:35;6.47;;;1.47;;
8791;SDS011;4432;50.890;4.744;2022-09-03T01:34:26;1.37;;;1.27;;
8791;SDS011;4432;50.890;4.744;2022-09-03T01:48:31;4.03;;;1.40;;
8791;SDS011;4432;50.890;4.744;2022-09-03T01:54:05;4.20;;;1.50;;
8791;SDS011;4432;50.890;4.744;2022-09-03T01:57:00;1.20;;;1.20;;
8791;SDS011;4432;50.890;4.744;2022-09-03T02:02:24;1.50;;;1.40;;
8791;SDS011;4432;50.890;4.744;2022-09-03T02:05:04;2.40;;;1.20;;
8791;SDS011;4432;50.890;4.744;2022-09-03T02:10:13;1.00;;;1.00;;
8791;SDS011;4432;50.890;4.744;2022-09-03T02:12:51;1.13;;;1.13;;
8791;SDS011;4432;50.890;4.744;2022-09-03T02:15:20;1.30;;;1.20;;
8791;SDS011;4432;50.890;4.744;2022-09-03T02:17:49;2.63;;;1.40;;
8791;SDS011;4432;50.890;4.744;2022-09-03T02:20:21;1.13;;;1.13;;
8791;SDS011;4432;50.890;4.744;2022-09-03T02:22:51;1.90;;;1.20;;
8791;SDS011;4432;50.890;4.744;2022-09-03T02:25:18;1.10;;;1.10;;
8791;SDS011;4432;50.890;4.744;2022-09-03T02:27:47;1.27;;;1.17;;
8791;SDS011;4432;50.890;4.744;2022-09-03T02:30:15;1.70;;;1.10;;
8791;SDS011;4432;50.890;4.744;2022-09-03T02:32:42;2.13;;;1.40;;
8791;SDS011;4432;50.890;4.744;2022-09-03T02:35:08;2.20;;;1.43;;
8791;SDS011;4432;50.890;4.744;2022-09-03T02:37:34;1.37;;;1.23;;
8791;SDS011;4432;50.890;4.744;2022-09-03T02:40:00;1.77;;;1.30;;
8791;SDS011;4432;50.890;4.744;2022-09-03T02:42:30;3.87;;;1.20;;
8791;SDS011;4432;50.890;4.744;2022-09-03T02:44:58;0.93;;;0.90;;
8791;SDS011;4432;50.890;4.744;2022-09-03T02:47:30;1.33;;;1.23;;
8791;SDS011;4432;50.890;4.744;2022-09-03T02:49:57;1.10;;;1.03;;
8791;SDS011;4432;50.890;4.744;2022-09-03T02:52:23;1.23;;;1.23;;
8791;SDS011;4432;50.890;4.744;2022-09-03T02:54:48;1.27;;;1.27;;
8791;SDS011;4432;50.890;4.744;2022-09-03T02:57:15;1.30;;;1.20;;
8791;SDS011;4432;50.890;4.744;2022-09-03T02:59:41;3.83;;;1.50;;
8791;SDS011;4432;50.890;4.744;2022-09-03T03:02:11;1.27;;;1.17;;
8791;SDS011;4432;50.890;4.744;2022-09-03T03:04:38;4.13;;;1.50;;
8791;SDS011;4432;50.890;4.744;2022-09-03T03:07:04;1.23;;;1.20;;
8791;SDS011;4432;50.890;4.744;2022-09-03T03:09:30;1.40;;;1.30;;
8791;SDS011;4432;50.890;4.744;2022-09-03T03:11:56;1.40;;;1.30;;
8791;SDS011;4432;50.890;4.744;2022-09-03T03:14:22;1.27;;;1.17;;
8791;SDS011;4432;50.890;4.744;2022-09-03T03:16:48;1.77;;;1.10;;
8791;SDS011;4432;50.890;4.744;2022-09-03T03:19:14;1.00;;;1.00;;
8791;SDS011;4432;50.890;4.744;2022-09-03T03:21:39;1.40;;;1.30;;
8791;SDS011;4432;50.890;4.744;2022-09-03T03:24:05;1.53;;;1.30;;
8791;SDS011;4432;50.890;4.744;2022-09-03T03:26:32;1.30;;;1.20;;
8791;SDS011;4432;50.890;4.744;2022-09-03T03:28:58;1.37;;;1.27;;
8791;SDS011;4432;50.890;4.744;2022-09-03T03:31:28;1.33;;;1.27;;
8791;SDS011;4432;50.890;4.744;2022-09-03T03:33:56;1.23;;;1.20;;
8791;SDS011;4432;50.890;4.744;2022-09-03T03:36:24;5.67;;;1.50;;
8791;SDS011;4432;50.890;4.744;2022-09-03T03:38:52;1.30;;;1.20;;
8791;SDS011;4432;50.890;4.744;2022-09-03T03:41:20;1.30;;;1.20;;
8791;SDS011;4432;50.890;4.744;2022-09-03T03:43:51;1.40;;;1.30;;
8791;SDS011;4432;50.890;4.744;2022-09-03T03:46:19;1.20;;;1.10;;
8791;SDS011;4432;50.890;4.744;2022-09-03T03:48:46;3.03;;;1.03;;
8791;SDS011;4432;50.890;4.744;2022-09-03T03:51:12;1.40;;;1.30;;
8791;SDS011;4432;50.890;4.744;2022-09-03T03:53:38;1.30;;;1.20;;
8791;SDS011;4432;50.890;4.744;2022-09-03T03:56:05;1.47;;;1.20;;
8791;SDS011;4432;50.890;4.744;2022-09-03T03:58:34;2.00;;;1.30;;
8791;SDS011;4432;50.890;4.744;2022-09-03T04:01:11;9.20;;;1.20;;
8791;SDS011;4432;50.890;4.744;2022-09-03T04:03:38;2.07;;;1.30;;
8791;SDS011;4432;50.890;4.744;2022-09-03T04:06:04;3.60;;;1.10;;
8791;SDS011;4432;50.890;4.744;2022-09-03T04:08:35;1.80;;;1.43;;
8791;SDS011;4432;50.890;4.744;2022-09-03T04:11:03;1.67;;;1.30;;
8791;SDS011;4432;50.890;4.744;2022-09-03T04:13:30;4.00;;;1.20;;
8791;SDS011;4432;50.890;4.744;2022-09-03T04:16:03;3.40;;;1.40;;
8791;SDS011;4432;50.890;4.744;2022-09-03T04:18:31;3.17;;;1.33;;
8791;SDS011;4432;50.890;4.744;2022-09-03T04:21:01;1.80;;;1.10;;
8791;SDS011;4432;50.890;4.744;2022-09-03T04:23:48;2.57;;;1.23;;
8791;SDS011;4432;50.890;4.744;2022-09-03T04:26:16;1.40;;;1.30;;
8791;SDS011;4432;50.890;4.744;2022-09-03T04:28:43;1.33;;;1.07;;
8791;SDS011;4432;50.890;4.744;2022-09-03T04:31:10;1.23;;;1.13;;
8791;SDS011;4432;50.890;4.744;2022-09-03T04:33:37;1.50;;;1.40;;
8791;SDS011;4432;50.890;4.744;2022-09-03T04:36:08;2.73;;;1.33;;
8791;SDS011;4432;50.890;4.744;2022-09-03T04:38:42;1.37;;;1.27;;
8791;SDS011;4432;50.890;4.744;2022-09-03T04:41:10;1.40;;;1.30;;
8791;SDS011;4432;50.890;4.744;2022-09-03T04:43:38;1.37;;;1.30;;
8791;SDS011;4432;50.890;4.744;2022-09-03T04:46:07;5.40;;;1.30;;
8791;SDS011;4432;50.890;4.744;2022-09-03T04:48:35;1.30;;;1.20;;
8791;SDS011;4432;50.890;4.744;2022-09-03T04:51:23;1.30;;;1.20;;
8791;SDS011;4432;50.890;4.744;2022-09-03T04:53:53;1.50;;;1.40;;
8791;SDS011;4432;50.890;4.744;2022-09-03T04:56:22;4.43;;;1.40;;
8791;SDS011;4432;50.890;4.744;2022-09-03T04:58:56;1.50;;;1.40;;
8791;SDS011;4432;50.890;4.744;2022-09-03T05:01:24;1.60;;;1.50;;
8791;SDS011;4432;50.890;4.744;2022-09-03T05:03:52;1.23;;;1.20;;
8791;SDS011;4432;50.890;4.744;2022-09-03T05:06:19;2.00;;;1.70;;
8791;SDS011;4432;50.890;4.744;2022-09-03T05:08:48;4.20;;;1.47;;
8791;SDS011;4432;50.890;4.744;2022-09-03T05:11:14;1.97;;;1.40;;
8791;SDS011;4432;50.890;4.744;2022-09-03T05:13:41;1.43;;;1.33;;
8791;SDS011;4432;50.890;4.744;2022-09-03T05:16:08;1.30;;;1.20;;
8791;SDS011;4432;50.890;4.744;2022-09-03T05:18:35;1.30;;;1.20;;
8791;SDS011;4432;50.890;4.744;2022-09-03T05:21:05;3.17;;;1.30;;
8791;SDS011;4432;50.890;4.744;2022-09-03T05:23:43;1.47;;;1.37;;
8791;SDS011;4432;50.890;4.744;2022-09-03T05:26:15;2.43;;;1.50;;
8791;SDS011;4432;50.890;4.744;2022-09-03T05:28:46;1.23;;;1.13;;
8791;SDS011;4432;50.890;4.744;2022-09-03T05:31:16;4.30;;;1.40;;
8791;SDS011;4432;50.890;4.744;2022-09-03T05:33:45;2.03;;;1.40;;
8791;SDS011;4432;50.890;4.744;2022-09-03T05:36:13;3.47;;;1.47;;
8791;SDS011;4432;50.890;4.744;2022-09-03T05:38:41;1.83;;;1.33;;
8791;SDS011;4432;50.890;4.744;2022-09-03T05:41:08;2.13;;;1.53;;
8791;SDS011;4432;50.890;4.744;2022-09-03T05:43:35;1.70;;;1.57;;
8791;SDS011;4432;50.890;4.744;2022-09-03T05:46:08;1.50;;;1.40;;
8791;SDS011;4432;50.890;4.744;2022-09-03T05:48:36;1.83;;;1.60;;
8791;SDS011;4432;50.890;4.744;2022-09-03T05:53:34;1.40;;;1.30;;
8791;SDS011;4432;50.890;4.744;2022-09-03T05:56:03;1.40;;;1.30;;
8791;SDS011;4432;50.890;4.744;2022-09-03T05:58:31;1.53;;;1.43;;
8791;SDS011;4432;50.890;4.744;2022-09-03T06:00:58;1.93;;;1.60;;
8791;SDS011;4432;50.890;4.744;2022-09-03T06:03:24;2.47;;;1.47;;
8791;SDS011;4432;50.890;4.744;2022-09-03T06:05:54;2.90;;;1.33;;
8791;SDS011;4432;50.890;4.744;2022-09-03T06:08:20;2.80;;;1.53;;
8791;SDS011;4432;50.890;4.744;2022-09-03T06:10:46;1.20;;;1.20;;
8791;SDS011;4432;50.890;4.744;2022-09-03T06:13:12;1.23;;;1.23;;
8791;SDS011;4432;50.890;4.744;2022-09-03T06:15:38;1.50;;;1.40;;
8791;SDS011;4432;50.890;4.744;2022-09-03T06:18:04;5.40;;;1.47;;
8791;SDS011;4432;50.890;4.744;2022-09-03T06:20:31;1.30;;;1.30;;
8791;SDS011;4432;50.890;4.744;2022-09-03T06:22:57;1.50;;;1.40;;
8791;SDS011;4432;50.890;4.744;2022-09-03T06:25:23;2.00;;;1.40;;
8791;SDS011;4432;50.890;4.744;2022-09-03T06:27:49;1.57;;;1.30;;
8791;SDS011;4432;50.890;4.744;2022-09-03T06:30:15;1.60;;;1.50;;
8791;SDS011;4432;50.890;4.744;2022-09-03T06:32:47;2.83;;;1.50;;
8791;SDS011;4432;50.890;4.744;2022-09-03T06:35:16;9.03;;;1.70;;
8791;SDS011;4432;50.890;4.744;2022-09-03T06:37:42;1.50;;;1.40;;
8791;SDS011;4432;50.890;4.744;2022-09-03T06:40:08;1.43;;;1.33;;
8791;SDS011;4432;50.890;4.744;2022-09-03T06:42:40;6.13;;;1.50;;
8791;SDS011;4432;50.890;4.744;2022-09-03T06:45:07;1.30;;;1.20;;
8791;SDS011;4432;50.890;4.744;2022-09-03T06:47:33;2.30;;;1.50;;
8791;SDS011;4432;50.890;4.744;2022-09-03T06:49:59;1.83;;;1.70;;
8791;SDS011;4432;50.890;4.744;2022-09-03T06:52:26;2.43;;;1.30;;
8791;SDS011;4432;50.890;4.744;2022-09-03T06:54:52;1.53;;;1.43;;
8791;SDS011;4432;50.890;4.744;2022-09-03T06:57:18;2.57;;;1.57;;
8791;SDS011;4432;50.890;4.744;2022-09-03T06:59:44;1.50;;;1.40;;
8791;SDS011;4432;50.890;4.744;2022-09-03T07:02:10;1.63;;;1.20;;
8791;SDS011;4432;50.890;4.744;2022-09-03T07:04:35;1.47;;;1.37;;
8791;SDS011;4432;50.890;4.744;2022-09-03T07:07:01;4.63;;;1.60;;
8791;SDS011;4432;50.890;4.744;2022-09-03T07:09:27;2.07;;;1.50;;
8791;SDS011;4432;50.890;4.744;2022-09-03T07:11:53;1.77;;;1.40;;
8791;SDS011;4432;50.890;4.744;2022-09-03T07:14:19;1.40;;;1.30;;
8791;SDS011;4432;50.890;4.744;2022-09-03T07:16:46;1.50;;;1.40;;
8791;SDS011;4432;50.890;4.744;2022-09-03T07:19:13;2.00;;;1.30;;
8791;SDS011;4432;50.890;4.744;2022-09-03T07:21:40;1.27;;;1.20;;
8791;SDS011;4432;50.890;4.744;2022-09-03T07:24:06;1.63;;;1.30;;
8791;SDS011;4432;50.890;4.744;2022-09-03T07:26:34;1.67;;;1.57;;
8791;SDS011;4432;50.890;4.744;2022-09-03T07:29:05;1.60;;;1.50;;
8791;SDS011;4432;50.890;4.744;2022-09-03T07:31:39;1.60;;;1.50;;
8791;SDS011;4432;50.890;4.744;2022-09-03T07:34:06;2.30;;;1.47;;
8791;SDS011;4432;50.890;4.744;2022-09-03T07:36:34;1.77;;;1.40;;
8791;SDS011;4432;50.890;4.744;2022-09-03T07:39:09;1.47;;;1.30;;
8791;SDS011;4432;50.890;4.744;2022-09-03T07:41:36;1.47;;;1.37;;
8791;SDS011;4432;50.890;4.744;2022-09-03T07:44:02;3.30;;;1.50;;
8791;SDS011;4432;50.890;4.744;2022-09-03T07:46:32;1.50;;;1.30;;
8791;SDS011;4432;50.890;4.744;2022-09-03T07:48:59;1.63;;;1.47;;
8791;SDS011;4432;50.890;4.744;2022-09-03T07:51:30;2.60;;;1.33;;
8791;SDS011;4432;50.890;4.744;2022-09-03T07:53:58;5.77;;;1.63;;
8791;SDS011;4432;50.890;4.744;2022-09-03T07:56:31;3.90;;;1.70;;
8791;SDS011;4432;50.890;4.744;2022-09-03T07:58:59;1.40;;;1.30;;
8791;SDS011;4432;50.890;4.744;2022-09-03T08:01:26;2.83;;;1.47;;
8791;SDS011;4432;50.890;4.744;2022-09-03T08:03:55;1.60;;;1.50;;
8791;SDS011;4432;50.890;4.744;2022-09-03T08:06:23;1.80;;;1.40;;
8791;SDS011;4432;50.890;4.744;2022-09-03T08:08:57;4.40;;;1.33;;
8791;SDS011;4432;50.890;4.744;2022-09-03T08:11:25;1.40;;;1.30;;
8791;SDS011;4432;50.890;4.744;2022-09-03T08:13:53;4.67;;;1.70;;
8791;SDS011;4432;50.890;4.744;2022-09-03T08:16:27;3.67;;;1.60;;
8791;SDS011;4432;50.890;4.744;2022-09-03T08:18:54;3.23;;;1.53;;
8791;SDS011;4432;50.890;4.744;2022-09-03T08:21:21;1.50;;;1.40;;
8791;SDS011;4432;50.890;4.744;2022-09-03T08:23:50;3.67;;;1.57;;
8791;SDS011;4432;50.890;4.744;2022-09-03T08:26:19;3.27;;;1.40;;
8791;SDS011;4432;50.890;4.744;2022-09-03T08:28:45;1.50;;;1.40;;
8791;SDS011;4432;50.890;4.744;2022-09-03T08:31:18;1.90;;;1.70;;
8791;SDS011;4432;50.890;4.744;2022-09-03T08:33:46;3.03;;;1.83;;
8791;SDS011;4432;50.890;4.744;2022-09-03T08:36:21;3.07;;;1.83;;
8791;SDS011;4432;50.890;4.744;2022-09-03T08:38:49;1.40;;;1.30;;
8791;SDS011;4432;50.890;4.744;2022-09-03T08:41:23;1.50;;;1.40;;
8791;SDS011;4432;50.890;4.744;2022-09-03T08:49:52;5.40;;;1.83;;
8791;SDS011;4432;50.890;4.744;2022-09-03T08:55:46;7.13;;;1.70;;
8791;SDS011;4432;50.890;4.744;2022-09-03T08:57:51;2.70;;;1.97;;
8791;SDS011;4432;50.890;4.744;2022-09-03T09:14:37;2.10;;;1.90;;
8791;SDS011;4432;50.890;4.744;2022-09-03T09:19:49;2.17;;;1.97;;
8791;SDS011;4432;50.890;4.744;2022-09-03T09:22:43;1.87;;;1.77;;
8791;SDS011;4432;50.890;4.744;2022-09-03T09:25:33;2.57;;;1.80;;
8791;SDS011;4432;50.890;4.744;2022-09-03T09:31:05;3.27;;;1.87;;
8791;SDS011;4432;50.890;4.744;2022-09-03T09:33:33;3.10;;;2.13;;
8791;SDS011;4432;50.890;4.744;2022-09-03T09:36:07;2.17;;;1.97;;
8791;SDS011;4432;50.890;4.744;2022-09-03T09:38:38;1.93;;;1.83;;
8791;SDS011;4432;50.890;4.744;2022-09-03T09:41:22;2.20;;;2.00;;
8791;SDS011;4432;50.890;4.744;2022-09-03T09:43:58;2.07;;;1.90;;
8791;SDS011;4432;50.890;4.744;2022-09-03T09:46:28;3.43;;;2.03;;
8791;SDS011;4432;50.890;4.744;2022-09-03T09:49:02;2.23;;;2.03;;
8791;SDS011;4432;50.890;4.744;2022-09-03T09:51:32;2.17;;;2.00;;
8791;SDS011;4432;50.890;4.744;2022-09-03T09:54:02;2.23;;;2.10;;
8791;SDS011;4432;50.890;4.744;2022-09-03T09:56:36;3.00;;;2.03;;
8791;SDS011;4432;50.890;4.744;2022-09-03T09:59:03;2.10;;;1.90;;
8791;SDS011;4432;50.890;4.744;2022-09-03T10:01:30;2.57;;;2.20;;
8791;SDS011;4432;50.890;4.744;2022-09-03T10:03:57;2.77;;;2.20;;
8791;SDS011;4432;50.890;4.744;2022-09-03T10:06:25;2.27;;;2.10;;
8791;SDS011;4432;50.890;4.744;2022-09-03T10:09:12;2.27;;;1.93;;
8791;SDS011;4432;50.890;4.744;2022-09-03T10:11:44;3.57;;;2.20;;
8791;SDS011;4432;50.890;4.744;2022-09-03T10:17:28;3.27;;;2.30;;
8791;SDS011;4432;50.890;4.744;2022-09-03T10:20:08;1.97;;;1.87;;
8791;SDS011;4432;50.890;4.744;2022-09-03T10:23:15;2.73;;;2.07;;
8791;SDS011;4432;50.890;4.744;2022-09-03T10:28:31;2.47;;;2.00;;
8791;SDS011;4432;50.890;4.744;2022-09-03T10:42:19;2.03;;;1.90;;
8791;SDS011;4432;50.890;4.744;2022-09-03T10:50:21;5.40;;;2.67;;
8791;SDS011;4432;50.890;4.744;2022-09-03T10:55:34;3.43;;;1.90;;
8791;SDS011;4432;50.890;4.744;2022-09-03T11:00:51;2.13;;;2.03;;
8791;SDS011;4432;50.890;4.744;2022-09-03T11:06:18;2.57;;;2.37;;
8791;SDS011;4432;50.890;4.744;2022-09-03T11:11:44;2.40;;;2.03;;
8791;SDS011;4432;50.890;4.744;2022-09-03T11:14:15;2.63;;;2.23;;
8791;SDS011;4432;50.890;4.744;2022-09-03T11:16:51;3.50;;;1.98;;
8791;SDS011;4432;50.890;4.744;2022-09-03T11:19:26;2.70;;;2.50;;
8791;SDS011;4432;50.890;4.744;2022-09-03T11:21:59;3.20;;;2.37;;
8791;SDS011;4432;50.890;4.744;2022-09-03T11:24:27;2.43;;;2.23;;
8791;SDS011;4432;50.890;4.744;2022-09-03T11:27:16;2.50;;;2.30;;
8791;SDS011;4432;50.890;4.744;2022-09-03T11:29:49;2.60;;;2.40;;
8791;SDS011;4432;50.890;4.744;2022-09-03T11:34:59;2.40;;;2.20;;
8791;SDS011;4432;50.890;4.744;2022-09-03T11:37:26;3.97;;;1.90;;
8791;SDS011;4432;50.890;4.744;2022-09-03T11:42:34;2.13;;;1.93;;
8791;SDS011;4432;50.890;4.744;2022-09-03T11:47:55;2.40;;;2.20;;
8791;SDS011;4432;50.890;4.744;2022-09-03T11:53:09;2.30;;;2.10;;
8791;SDS011;4432;50.890;4.744;2022-09-03T11:55:58;2.20;;;2.00;;
8791;SDS011;4432;50.890;4.744;2022-09-03T11:58:29;2.60;;;2.33;;
8791;SDS011;4432;50.890;4.744;2022-09-03T12:01:04;2.93;;;2.17;;
8791;SDS011;4432;50.890;4.744;2022-09-03T12:14:37;2.33;;;2.20;;
8791;SDS011;4432;50.890;4.744;2022-09-03T12:20:38;2.37;;;2.17;;
8791;SDS011;4432;50.890;4.744;2022-09-03T12:23:05;2.43;;;2.20;;
8791;SDS011;4432;50.890;4.744;2022-09-03T12:25:31;2.20;;;2.07;;
8791;SDS011;4432;50.890;4.744;2022-09-03T12:27:59;2.00;;;1.87;;
8791;SDS011;4432;50.890;4.744;2022-09-03T12:30:29;2.37;;;2.27;;
8791;SDS011;4432;50.890;4.744;2022-09-03T12:33:02;6.40;;;2.20;;
8791;SDS011;4432;50.890;4.744;2022-09-03T12:35:29;2.53;;;2.33;;
8791;SDS011;4432;50.890;4.744;2022-09-03T12:37:55;1.90;;;1.80;;
8791;SDS011;4432;50.890;4.744;2022-09-03T12:40:22;2.47;;;2.27;;
8791;SDS011;4432;50.890;4.744;2022-09-03T12:42:50;2.37;;;2.17;;
8791;SDS011;4432;50.890;4.744;2022-09-03T12:45:23;1.90;;;1.80;;
8791;SDS011;4432;50.890;4.744;2022-09-03T12:47:50;2.20;;;2.00;;
8791;SDS011;4432;50.890;4.744;2022-09-03T13:00:35;4.87;;;2.10;;
8791;SDS011;4432;50.890;4.744;2022-09-03T13:03:07;2.23;;;2.03;;
8791;SDS011;4432;50.890;4.744;2022-09-03T13:05:49;3.30;;;2.20;;
8791;SDS011;4432;50.890;4.744;2022-09-03T13:08:25;2.00;;;1.90;;
8791;SDS011;4432;50.890;4.744;2022-09-03T13:11:00;3.17;;;2.10;;
8791;SDS011;4432;50.890;4.744;2022-09-03T13:13:30;2.03;;;1.93;;
8791;SDS011;4432;50.890;4.744;2022-09-03T13:24:05;2.70;;;2.23;;
8791;SDS011;4432;50.890;4.744;2022-09-03T13:35:41;2.40;;;2.17;;
8791;SDS011;4432;50.890;4.744;2022-09-03T13:43:53;2.17;;;1.97;;
8791;SDS011;4432;50.890;4.744;2022-09-03T14:00:21;2.35;;;2.25;;
8791;SDS011;4432;50.890;4.744;2022-09-03T14:09:19;4.35;;;2.42;;
8791;SDS011;4432;50.890;4.744;2022-09-03T14:17:23;2.37;;;2.17;;
8791;SDS011;4432;50.890;4.744;2022-09-03T14:20:02;1.87;;;1.77;;
8791;SDS011;4432;50.890;4.744;2022-09-03T14:25:16;2.08;;;1.83;;
8791;SDS011;4432;50.890;4.744;2022-09-03T14:27:44;2.00;;;1.83;;
8791;SDS011;4432;50.890;4.744;2022-09-03T14:30:24;2.10;;;1.90;;
8791;SDS011;4432;50.890;4.744;2022-09-03T14:35:39;2.37;;;2.10;;
8791;SDS011;4432;50.890;4.744;2022-09-03T14:41:31;1.80;;;1.70;;
8791;SDS011;4432;50.890;4.744;2022-09-03T14:46:54;2.10;;;1.90;;
8791;SDS011;4432;50.890;4.744;2022-09-03T14:55:47;5.03;;;2.27;;
8791;SDS011;4432;50.890;4.744;2022-09-03T15:00:32;2.30;;;2.10;;
8791;SDS011;4432;50.890;4.744;2022-09-03T15:08:46;2.40;;;2.20;;
8791;SDS011;4432;50.890;4.744;2022-09-03T15:11:45;2.57;;;2.10;;
8791;SDS011;4432;50.890;4.744;2022-09-03T15:14:25;2.10;;;2.00;;
8791;SDS011;4432;50.890;4.744;2022-09-03T15:24:51;6.20;;;2.20;;
8791;SDS011;4432;50.890;4.744;2022-09-03T15:30:08;2.40;;;2.20;;
8791;SDS011;4432;50.890;4.744;2022-09-03T15:37:58;2.10;;;1.90;;
8791;SDS011;4432;50.890;4.744;2022-09-03T15:40:30;2.30;;;2.10;;
8791;SDS011;4432;50.890;4.744;2022-09-03T15:43:18;2.93;;;2.03;;
8791;SDS011;4432;50.890;4.744;2022-09-03T15:45:59;4.13;;;2.30;;
8791;SDS011;4432;50.890;4.744;2022-09-03T15:48:57;5.57;;;2.17;;
8791;SDS011;4432;50.890;4.744;2022-09-03T15:51:41;2.50;;;2.07;;
8791;SDS011;4432;50.890;4.744;2022-09-03T15:57:33;2.47;;;2.20;;
8791;SDS011;4432;50.890;4.744;2022-09-03T16:00:08;4.33;;;2.27;;
8791;SDS011;4432;50.890;4.744;2022-09-03T16:02:39;2.07;;;1.93;;
8791;SDS011;4432;50.890;4.744;2022-09-03T16:05:20;2.10;;;1.90;;
8791;SDS011;4432;50.890;4.744;2022-09-03T16:11:08;2.20;;;2.00;;
8791;SDS011;4432;50.890;4.744;2022-09-03T16:16:44;3.50;;;2.23;;
8791;SDS011;4432;50.890;4.744;2022-09-03T16:19:35;2.50;;;2.30;;
8791;SDS011;4432;50.890;4.744;2022-09-03T16:22:27;4.43;;;2.17;;
8791;SDS011;4432;50.890;4.744;2022-09-03T16:24:59;5.00;;;2.10;;
8791;SDS011;4432;50.890;4.744;2022-09-03T16:27:32;3.27;;;2.67;;
8791;SDS011;4432;50.890;4.744;2022-09-03T16:35:29;3.07;;;2.53;;
8791;SDS011;4432;50.890;4.744;2022-09-03T16:38:17;6.33;;;3.03;;
8791;SDS011;4432;50.890;4.744;2022-09-03T16:40:56;2.50;;;2.30;;
8791;SDS011;4432;50.890;4.744;2022-09-03T16:51:56;7.63;;;1.90;;
8791;SDS011;4432;50.890;4.744;2022-09-03T17:07:41;2.13;;;1.60;;
8791;SDS011;4432;50.890;4.744;2022-09-03T17:16:02;3.73;;;2.30;;
8791;SDS011;4432;50.890;4.744;2022-09-03T17:19:20;2.70;;;2.50;;
8791;SDS011;4432;50.890;4.744;2022-09-03T17:21:46;2.70;;;2.50;;
8791;SDS011;4432;50.890;4.744;2022-09-03T17:24:31;3.70;;;2.10;;
8791;SDS011;4432;50.890;4.744;2022-09-03T17:27:33;2.43;;;2.33;;
8791;SDS011;4432;50.890;4.744;2022-09-03T17:44:19;3.90;;;3.00;;
8791;SDS011;4432;50.890;4.744;2022-09-03T17:47:11;3.57;;;3.23;;
8791;SDS011;4432;50.890;4.744;2022-09-03T17:49:45;3.50;;;3.20;;
8791;SDS011;4432;50.890;4.744;2022-09-03T17:52:23;3.57;;;3.27;;
8791;SDS011;4432;50.890;4.744;2022-09-03T17:55:00;3.30;;;3.00;;
8791;SDS011;4432;50.890;4.744;2022-09-03T17:57:37;5.63;;;3.10;;
8791;SDS011;4432;50.890;4.744;2022-09-03T18:00:11;2.90;;;2.70;;
8791;SDS011;4432;50.890;4.744;2022-09-03T18:05:47;3.23;;;2.90;;
8791;SDS011;4432;50.890;4.744;2022-09-03T18:08:29;3.30;;;3.00;;
8791;SDS011;4432;50.890;4.744;2022-09-03T18:16:19;3.83;;;3.43;;
8791;SDS011;4432;50.890;4.744;2022-09-03T18:18:56;3.40;;;3.10;;
8791;SDS011;4432;50.890;4.744;2022-09-03T18:21:28;4.23;;;3.80;;
8791;SDS011;4432;50.890;4.744;2022-09-03T18:30:21;5.53;;;4.07;;
8791;SDS011;4432;50.890;4.744;2022-09-03T18:33:07;4.47;;;3.43;;
8791;SDS011;4432;50.890;4.744;2022-09-03T18:35:51;3.47;;;3.17;;
8791;SDS011;4432;50.890;4.744;2022-09-03T18:38:37;4.33;;;3.43;;
8791;SDS011;4432;50.890;4.744;2022-09-03T18:57:08;4.80;;;3.47;;
8791;SDS011;4432;50.890;4.744;2022-09-03T19:00:21;4.23;;;3.83;;
8791;SDS011;4432;50.890;4.744;2022-09-03T19:13:21;5.30;;;3.40;;
8791;SDS011;4432;50.890;4.744;2022-09-03T19:16:49;4.03;;;3.63;;
8791;SDS011;4432;50.890;4.744;2022-09-03T19:22:34;4.33;;;3.43;;
8791;SDS011;4432;50.890;4.744;2022-09-03T19:25:20;4.57;;;3.87;;
8791;SDS011;4432;50.890;4.744;2022-09-03T19:39:38;7.13;;;2.50;;
8791;SDS011;4432;50.890;4.744;2022-09-03T19:51:35;3.57;;;3.27;;
8791;SDS011;4432;50.890;4.744;2022-09-03T19:54:28;3.80;;;3.40;;
8791;SDS011;4432;50.890;4.744;2022-09-03T19:57:13;3.40;;;3.10;;
8791;SDS011;4432;50.890;4.744;2022-09-03T20:00:00;3.60;;;3.30;;
8791;SDS011;4432;50.890;4.744;2022-09-03T20:02:46;5.07;;;3.33;;
8791;SDS011;4432;50.890;4.744;2022-09-03T20:05:31;3.73;;;3.43;;
8791;SDS011;4432;50.890;4.744;2022-09-03T20:08:17;3.83;;;3.43;;
8791;SDS011;4432;50.890;4.744;2022-09-03T20:11:03;3.47;;;2.83;;
8791;SDS011;4432;50.890;4.744;2022-09-03T20:13:31;3.70;;;3.40;;
8791;SDS011;4432;50.890;4.744;2022-09-03T20:19:07;3.40;;;3.10;;
8791;SDS011;4432;50.890;4.744;2022-09-03T20:21:39;3.50;;;3.20;;
8791;SDS011;4432;50.890;4.744;2022-09-03T20:30:03;6.77;;;2.90;;
8791;SDS011;4432;50.890;4.744;2022-09-03T20:32:37;3.67;;;2.77;;
8791;SDS011;4432;50.890;4.744;2022-09-03T20:35:08;3.67;;;2.80;;
8791;SDS011;4432;50.890;4.744;2022-09-03T20:43:57;2.93;;;2.70;;
8791;SDS011;4432;50.890;4.744;2022-09-03T20:49:52;3.93;;;3.40;;
8791;SDS011;4432;50.890;4.744;2022-09-03T20:52:22;3.60;;;2.93;;
8791;SDS011;4432;50.890;4.744;2022-09-03T20:55:42;3.80;;;3.03;;
8791;SDS011;4432;50.890;4.744;2022-09-03T21:01:04;3.20;;;2.70;;
8791;SDS011;4432;50.890;4.744;2022-09-03T21:03:43;5.73;;;3.23;;
8791;SDS011;4432;50.890;4.744;2022-09-03T21:16:43;6.80;;;2.90;;
8791;SDS011;4432;50.890;4.744;2022-09-03T21:19:18;2.80;;;2.50;;
8791;SDS011;4432;50.890;4.744;2022-09-03T21:22:11;2.93;;;2.63;;
8791;SDS011;4432;50.890;4.744;2022-09-03T21:24:51;3.30;;;2.93;;
8791;SDS011;4432;50.890;4.744;2022-09-03T21:27:25;3.20;;;2.90;;
8791;SDS011;4432;50.890;4.744;2022-09-03T21:40:30;3.40;;;3.10;;
8791;SDS011;4432;50.890;4.744;2022-09-03T21:43:03;3.40;;;3.10;;
8791;SDS011;4432;50.890;4.744;2022-09-03T21:45:41;3.50;;;3.10;;
8791;SDS011;4432;50.890;4.744;2022-09-03T21:48:14;2.90;;;2.67;;
8791;SDS011;4432;50.890;4.744;2022-09-03T21:50:45;3.13;;;2.83;;
8791;SDS011;4432;50.890;4.744;2022-09-03T21:53:34;3.30;;;3.00;;
8791;SDS011;4432;50.890;4.744;2022-09-03T22:04:07;5.83;;;3.40;;
8791;SDS011;4432;50.890;4.744;2022-09-03T22:06:37;3.30;;;3.00;;
8791;SDS011;4432;50.890;4.744;2022-09-03T22:11:57;4.73;;;3.50;;
8791;SDS011;4432;50.890;4.744;2022-09-03T22:14:44;3.60;;;3.30;;
8791;SDS011;4432;50.890;4.744;2022-09-03T22:17:15;4.40;;;3.17;;
8791;SDS011;4432;50.890;4.744;2022-09-03T22:19:47;4.97;;;3.83;;
8791;SDS011;4432;50.890;4.744;2022-09-03T22:22:18;3.93;;;3.50;;
8791;SDS011;4432;50.890;4.744;2022-09-03T22:27:49;3.83;;;3.30;;
8791;SDS011;4432;50.890;4.744;2022-09-03T22:30:14;4.30;;;3.27;;
8791;SDS011;4432;50.890;4.744;2022-09-03T22:50:02;7.30;;;3.50;;
8791;SDS011;4432;50.890;4.744;2022-09-03T22:52:53;6.10;;;3.60;;
8791;SDS011;4432;50.890;4.744;2022-09-03T22:55:22;3.10;;;2.80;;
8791;SDS011;4432;50.890;4.744;2022-09-03T23:00:37;3.90;;;3.07;;
8791;SDS011;4432;50.890;4.744;2022-09-03T23:03:07;5.23;;;3.23;;
8791;SDS011;4432;50.890;4.744;2022-09-03T23:05:42;4.07;;;3.07;;
8791;SDS011;4432;50.890;4.744;2022-09-03T23:08:33;4.93;;;2.97;;
8791;SDS011;4432;50.890;4.744;2022-09-03T23:11:09;3.77;;;3.20;;
8791;SDS011;4432;50.890;4.744;2022-09-03T23:14:51;4.97;;;3.10;;